Airfield :
LOGIN :

Register | Disclaimer

   EN    FR    IT 

 










Legend :    VFR   Marginal VFR   IFR   Intensive IFR   Very Intensive IFR
Visi :
Ceiling :
>= 8 km
>= 3000ft
5 to 8 km
1000 to 3000 ft
1500m to 5 km
500 to 1000 ft
800 to 1500m
200 to 500 ft
< 800m
< 200 ft
Symbols :   Thunderstorms  Fog  Heavy snow  Heavy precipitations  Wind > 20 kt
SIGMETs :     Misc.  Thunderstorms  Icing  Turbulence  Mountain Waves  Volcanic Ashes






- Airport Elevation : 286 ft
- IATA code : FFD


EGVA - RAF Fairford

CURRENT METAR :
  • 191356Z AUTO 16012KT 9999 SCT180 15/06 A2985 RMK AO2 SLP112 T01460057 $

EXPIRED METARs :
  • 191256Z AUTO 17013KT 9999 SCT200 16/06 A2989 RMK AO2 SLP125 T01590063 $
  • 191156Z AUTO 18014G20KT 9999 CLR 15/06 A2992 RMK AO2 SLP135 T01480064 10150 20074 57029 $

TAF AMD TAF EGVA
Valid from the 19 at 06:00 until the 20 at 10:00 UTC


190640Z 1906/2010 16006KT 9999 SCT015 BKN040 BKN200 QNH2995INS
BECMG 1910/1911 17012G22KT 9999 SCT030 BKN120 QNH2950INS
BECMG 2001/2002 16012G20KT 9000 -RA BKN015 OVC040 620709 QNH2948INS
BECMG 2004/2005 16012G20KT 9000 -DZ BKN007 OVC015 QNH2948INS
BECMG 2005/2006 19012G20KT 9999 NSW BKN007 OVC015 QNH2948INS TX13/1912Z TN08/1906Z LAST NO AMDS AFT 1906 NEXT 2006



MET'MAP, your aeronautical weather chart ! - Copyright ORBIFLY December 2007 - Disclaimer

ORBIFLY MET'MAP TEAM :

Programming & Development : Alexandra Zaïnal
Concept & original design : Baudouin d'Aumeries
Assistance for programming : Marc-Olivier Méhu
Technical & hardware support : Manuel Goepfert

Contact : metmap@orbifly.com




SOURCES & CREDITS :

   NOAA